Time;durP1;ratioP1;P1;durP2;ratioP2;P2;SDS_P1;SDS_P2;PMS_P1;PMS_P2;Temp;Humidity;BMP_temperature;BMP_pressure;BME280_temperature;BME280_humidity;BME280_pressure;Samples;Min_cycle;Max_cycle;Signal;HPM_P1;HPM_P2
2022/11/04 00:01:22;;;;;;;5.28;1.40;;;;;;;;;;4964801;28;20050;-61
2022/11/04 00:03:48;;;;;;;4.13;1.20;;;;;;;;;;4978106;28;20332;-61
2022/11/04 00:06:15;;;;;;;3.88;2.10;;;;;;;;;;4964969;28;20066;-61
2022/11/04 00:08:43;;;;;;;3.33;1.40;;;;;;;;;;4958279;28;20059;-61
2022/11/04 00:13:53;;;;;;;5.20;1.90;;;;;;;;;;4938266;28;20385;-62
2022/11/04 00:19:03;;;;;;;4.10;1.75;;;;;;;;;;4981822;28;20062;-61
2022/11/04 00:29:44;;;;;;;5.82;2.63;;;;;;;;;;4938991;28;20250;-61
2022/11/04 00:34:54;;;;;;;4.68;1.90;;;;;;;;;;4944224;29;20058;-61
2022/11/04 00:37:23;;;;;;;7.68;3.17;;;;;;;;;;4946559;28;20090;-62
2022/11/04 00:39:51;;;;;;;6.13;2.33;;;;;;;;;;4956277;28;20133;-61
2022/11/04 00:42:18;;;;;;;6.25;3.05;;;;;;;;;;4955440;28;20051;-61
2022/11/04 00:44:44;;;;;;;4.47;2.25;;;;;;;;;;4944875;28;20114;-61
2022/11/04 00:47:11;;;;;;;4.53;2.17;;;;;;;;;;4938304;28;20055;-61
2022/11/04 00:49:38;;;;;;;3.72;1.80;;;;;;;;;;4941612;28;20093;-61
2022/11/04 00:52:04;;;;;;;3.78;1.85;;;;;;;;;;4943433;28;20059;-61
2022/11/04 00:54:31;;;;;;;5.47;1.30;;;;;;;;;;4966178;28;20075;-61
2022/11/04 00:56:59;;;;;;;1.83;1.02;;;;;;;;;;4963421;28;20078;-61
2022/11/04 00:59:27;;;;;;;4.47;1.20;;;;;;;;;;4943253;28;20059;-62
2022/11/04 01:01:54;;;;;;;;;;;;;;;;;;4942342;28;20397;-61
2022/11/04 01:04:20;;;;;;;1.75;0.70;;;;;;;;;;4970071;28;19977;-62
2022/11/04 01:06:47;;;;;;;3.00;1.27;;;;;;;;;;4962161;28;20058;-62
2022/11/04 01:09:13;;;;;;;2.30;1.02;;;;;;;;;;4947573;28;20047;-62
2022/11/04 01:11:40;;;;;;;1.95;1.10;;;;;;;;;;4956044;28;20054;-61
2022/11/04 01:14:09;;;;;;;2.75;1.25;;;;;;;;;;4956505;28;20062;-61
2022/11/04 01:16:36;;;;;;;4.93;0.95;;;;;;;;;;4968742;28;20058;-61
2022/11/04 01:19:02;;;;;;;1.42;0.73;;;;;;;;;;4941618;28;20048;-62
2022/11/04 01:21:29;;;;;;;1.92;0.82;;;;;;;;;;4941370;28;20047;-61
2022/11/04 01:23:56;;;;;;;4.05;1.10;;;;;;;;;;4952180;28;20058;-62
2022/11/04 01:26:24;;;;;;;1.45;0.68;;;;;;;;;;4942871;28;20051;-62
2022/11/04 01:28:51;;;;;;;1.25;0.85;;;;;;;;;;4957845;28;20070;-61
2022/11/04 01:31:21;;;;;;;2.22;0.75;;;;;;;;;;4947641;28;20146;-61
2022/11/04 01:33:49;;;;;;;2.22;0.90;;;;;;;;;;4931237;28;20066;-62
2022/11/04 01:36:15;;;;;;;5.75;0.90;;;;;;;;;;4943172;28;20055;-61
2022/11/04 01:38:42;;;;;;;0.90;0.70;;;;;;;;;;4938186;28;20055;-62
2022/11/04 01:41:09;;;;;;;3.53;0.70;;;;;;;;;;4979731;28;20050;-61
2022/11/04 01:43:46;;;;;;;0.80;0.60;;;;;;;;;;4945546;28;20066;-62
2022/11/04 01:46:15;;;;;;;1.25;0.70;;;;;;;;;;4956528;28;20073;-61
2022/11/04 01:48:43;;;;;;;2.17;0.95;;;;;;;;;;4965188;28;20548;-62
2022/11/04 01:51:09;;;;;;;1.42;0.85;;;;;;;;;;4956104;28;20062;-61
2022/11/04 01:53:39;;;;;;;3.13;1.00;;;;;;;;;;4959821;28;20054;-61
2022/11/04 01:56:10;;;;;;;1.00;0.80;;;;;;;;;;4945490;28;20106;-61
2022/11/04 01:58:39;;;;;;;3.67;1.00;;;;;;;;;;4940893;29;20052;-61
2022/11/04 02:01:06;;;;;;;1.20;0.77;;;;;;;;;;4950515;28;20149;-62
2022/11/04 02:03:34;;;;;;;2.67;1.40;;;;;;;;;;4973054;28;20102;-61
2022/11/04 02:06:03;;;;;;;1.77;1.08;;;;;;;;;;4949548;28;20071;-62
2022/11/04 02:08:29;;;;;;;4.20;2.00;;;;;;;;;;4940852;29;20051;-62
2022/11/04 02:10:58;;;;;;;4.03;1.55;;;;;;;;;;4960318;28;20125;-62
2022/11/04 02:13:25;;;;;;;4.22;1.17;;;;;;;;;;4960481;28;20058;-62
2022/11/04 02:15:56;;;;;;;3.95;1.10;;;;;;;;;;4947661;28;20082;-62
2022/11/04 02:18:32;;;;;;;3.17;1.20;;;;;;;;;;4959931;28;20126;-63
2022/11/04 02:21:20;;;;;;;4.05;2.10;;;;;;;;;;4951939;28;20075;-62
2022/11/04 02:23:46;;;;;;;;;;;;;;;;;;4956122;28;20058;-62
2022/11/04 02:26:32;;;;;;;5.38;1.23;;;;;;;;;;4963950;28;20022;-62
2022/11/04 02:29:20;;;;;;;4.97;2.42;;;;;;;;;;4942136;28;20063;-62
2022/11/04 02:31:51;;;;;;;8.48;2.95;;;;;;;;;;4949694;28;20047;-62
2022/11/04 02:34:19;;;;;;;8.02;3.22;;;;;;;;;;4961271;28;20047;-62
2022/11/04 02:36:46;;;;;;;;;;;;;;;;;;4953681;28;20067;-62
2022/11/04 02:39:19;;;;;;;6.03;2.58;;;;;;;;;;4940693;28;19930;-62
2022/11/04 02:41:49;;;;;;;8.32;2.88;;;;;;;;;;4934412;28;20047;-62
2022/11/04 02:44:19;;;;;;;7.40;3.42;;;;;;;;;;4959667;28;20063;-62
2022/11/04 02:46:49;;;;;;;7.60;2.38;;;;;;;;;;4969343;28;20145;-62
2022/11/04 02:49:19;;;;;;;7.22;3.53;;;;;;;;;;4956761;28;20051;-62
2022/11/04 02:51:49;;;;;;;6.47;2.85;;;;;;;;;;4951171;28;20047;-62
2022/11/04 02:54:17;;;;;;;7.07;3.65;;;;;;;;;;4960012;28;20051;-62
2022/11/04 02:56:46;;;;;;;6.50;3.15;;;;;;;;;;4942828;28;20062;-62
2022/11/04 02:59:15;;;;;;;7.90;3.28;;;;;;;;;;4959330;28;20054;-62
2022/11/04 03:01:45;;;;;;;7.38;3.38;;;;;;;;;;4952500;28;20050;-62
2022/11/04 03:04:14;;;;;;;8.30;3.67;;;;;;;;;;4956193;28;20101;-62
2022/11/04 03:06:41;;;;;;;6.57;2.40;;;;;;;;;;4979586;28;20061;-62
2022/11/04 03:09:08;;;;;;;9.95;5.53;;;;;;;;;;4975246;28;20034;-62
2022/11/04 03:11:39;;;;;;;14.93;7.22;;;;;;;;;;4976533;28;20071;-62
2022/11/04 03:14:08;;;;;;;12.55;5.65;;;;;;;;;;4978733;28;20121;-62
2022/11/04 03:16:36;;;;;;;9.00;3.67;;;;;;;;;;4983494;28;20053;-62
2022/11/04 03:19:08;;;;;;;13.43;5.95;;;;;;;;;;4956594;28;20059;-62
2022/11/04 03:21:37;;;;;;;13.32;6.53;;;;;;;;;;4971155;28;20057;-62
2022/11/04 03:24:05;;;;;;;8.23;4.10;;;;;;;;;;4982799;28;20062;-62
2022/11/04 03:26:35;;;;;;;8.20;3.53;;;;;;;;;;5000176;28;20061;-62
2022/11/04 03:29:07;;;;;;;11.02;5.72;;;;;;;;;;4970811;28;20058;-62
2022/11/04 03:31:40;;;;;;;14.70;5.82;;;;;;;;;;4972986;28;20050;-62
2022/11/04 03:34:08;;;;;;;8.43;3.75;;;;;;;;;;4969564;28;20062;-62
2022/11/04 03:36:35;;;;;;;13.65;7.18;;;;;;;;;;4957363;28;20117;-62
2022/11/04 03:39:01;;;;;;;10.80;4.63;;;;;;;;;;4969694;28;20062;-62
2022/11/04 03:41:31;;;;;;;12.65;5.90;;;;;;;;;;4943308;28;20050;-62
2022/11/04 03:43:58;;;;;;;12.27;5.97;;;;;;;;;;4949143;28;20058;-62
2022/11/04 03:46:25;;;;;;;11.27;5.60;;;;;;;;;;4962922;28;20053;-62
2022/11/04 03:48:52;;;;;;;9.82;5.13;;;;;;;;;;4954674;28;20050;-62
2022/11/04 03:51:20;;;;;;;9.90;5.13;;;;;;;;;;4962451;28;20062;-62
2022/11/04 03:53:47;;;;;;;8.85;4.68;;;;;;;;;;4953509;28;20154;-62
2022/11/04 03:56:27;;;;;;;9.73;4.60;;;;;;;;;;4970572;28;20054;-62
2022/11/04 03:58:58;;;;;;;11.15;5.00;;;;;;;;;;4961748;28;20062;-62
2022/11/04 04:01:30;;;;;;;8.70;4.35;;;;;;;;;;4957141;28;20058;-61
2022/11/04 04:04:00;;;;;;;10.75;4.75;;;;;;;;;;4962578;28;20062;-62
2022/11/04 04:06:29;;;;;;;10.90;4.80;;;;;;;;;;4952919;28;20061;-61
2022/11/04 04:08:57;;;;;;;8.27;4.13;;;;;;;;;;4941283;28;20074;-61
2022/11/04 04:11:29;;;;;;;9.20;4.18;;;;;;;;;;4983382;28;20100;-62
2022/11/04 04:13:58;;;;;;;8.50;4.07;;;;;;;;;;4945744;28;20055;-62
2022/11/04 04:16:29;;;;;;;10.40;4.25;;;;;;;;;;4955879;28;20101;-62
2022/11/04 04:18:58;;;;;;;9.55;4.15;;;;;;;;;;4961920;28;20050;-61
2022/11/04 04:21:27;;;;;;;8.85;4.43;;;;;;;;;;4956691;28;20046;-62
2022/11/04 04:29:28;;;;;;;9.40;4.00;;;;;;;;;;4980053;28;20057;-62
2022/11/04 04:31:56;;;;;;;9.43;3.95;;;;;;;;;;4960303;28;20055;-61
2022/11/04 04:34:24;;;;;;;7.15;3.90;;;;;;;;;;4950460;28;20047;-62
2022/11/04 04:36:53;;;;;;;9.32;3.90;;;;;;;;;;4951402;28;20054;-61
2022/11/04 04:45:01;;;;;;;8.13;3.65;;;;;;;;;;4967647;28;20128;-61
2022/11/04 04:47:31;;;;;;;10.40;3.70;;;;;;;;;;4956418;28;20058;-61
2022/11/04 04:49:59;;;;;;;7.78;3.95;;;;;;;;;;4965693;28;20061;-61
2022/11/04 04:52:30;;;;;;;6.97;3.28;;;;;;;;;;4949704;28;20047;-61
2022/11/04 04:54:57;;;;;;;8.50;3.38;;;;;;;;;;4945783;28;20090;-61
2022/11/04 04:57:25;;;;;;;6.60;3.22;;;;;;;;;;4950355;28;20137;-61
2022/11/04 04:59:51;;;;;;;7.13;3.28;;;;;;;;;;4973246;28;20062;-61
2022/11/04 05:02:19;;;;;;;6.72;3.50;;;;;;;;;;4939534;28;20084;-61
2022/11/04 05:04:45;;;;;;;7.40;3.45;;;;;;;;;;4943448;28;20122;-61
2022/11/04 05:07:12;;;;;;;6.60;3.28;;;;;;;;;;4937316;28;20061;-61
2022/11/04 05:09:38;;;;;;;7.15;3.63;;;;;;;;;;4934748;28;20102;-62
2022/11/04 05:12:08;;;;;;;6.90;3.03;;;;;;;;;;4939044;28;20133;-61
2022/11/04 05:14:35;;;;;;;6.47;3.22;;;;;;;;;;4958774;28;20146;-61
2022/11/04 05:17:02;;;;;;;8.05;3.47;;;;;;;;;;4969441;28;20074;-61
2022/11/04 05:19:29;;;;;;;7.00;3.70;;;;;;;;;;4952954;28;20125;-61
2022/11/04 05:21:56;;;;;;;6.85;3.28;;;;;;;;;;4961071;28;20094;-61
2022/11/04 05:24:22;;;;;;;6.20;3.10;;;;;;;;;;4952044;28;20051;-61
2022/11/04 05:26:49;;;;;;;7.68;3.35;;;;;;;;;;4942498;28;20181;-61
2022/11/04 05:29:17;;;;;;;6.05;3.10;;;;;;;;;;4941885;28;20071;-61
2022/11/04 05:31:44;;;;;;;6.20;3.03;;;;;;;;;;4956118;28;20050;-61
2022/11/04 05:34:11;;;;;;;6.10;2.78;;;;;;;;;;4955981;28;20046;-61
2022/11/04 05:36:38;;;;;;;6.82;2.92;;;;;;;;;;4962070;28;20050;-61
2022/11/04 05:39:05;;;;;;;6.32;3.03;;;;;;;;;;4970779;28;20109;-61
2022/11/04 05:41:31;;;;;;;6.45;2.90;;;;;;;;;;4960500;28;20090;-61
2022/11/04 05:43:58;;;;;;;8.05;3.05;;;;;;;;;;4955269;28;20058;-61
2022/11/04 05:46:27;;;;;;;6.35;2.78;;;;;;;;;;4962127;28;20051;-61
2022/11/04 05:48:54;;;;;;;6.00;2.42;;;;;;;;;;4975987;28;20047;-62
2022/11/04 05:51:22;;;;;;;6.13;2.63;;;;;;;;;;4977689;28;20066;-61
2022/11/04 05:53:48;;;;;;;6.70;2.65;;;;;;;;;;4950193;28;20050;-61
2022/11/04 05:56:15;;;;;;;7.07;2.50;;;;;;;;;;4961637;28;20062;-61
2022/11/04 05:58:42;;;;;;;5.63;2.78;;;;;;;;;;4980929;28;20066;-61
2022/11/04 06:01:12;;;;;;;4.80;2.28;;;;;;;;;;4961688;28;20054;-62
2022/11/04 06:03:40;;;;;;;6.78;2.63;;;;;;;;;;4958060;28;20062;-61
2022/11/04 06:06:07;;;;;;;7.18;2.70;;;;;;;;;;4943090;28;20074;-61
2022/11/04 06:08:33;;;;;;;5.30;2.60;;;;;;;;;;4945306;28;20141;-61
2022/11/04 06:11:04;;;;;;;7.20;2.65;;;;;;;;;;4966444;28;20070;-61
2022/11/04 06:13:31;;;;;;;10.80;2.85;;;;;;;;;;4954344;28;20070;-61
2022/11/04 06:15:58;;;;;;;8.10;2.95;;;;;;;;;;4942353;28;20115;-61
2022/11/04 06:18:24;;;;;;;5.05;2.40;;;;;;;;;;4956871;28;20055;-61
2022/11/04 06:21:05;;;;;;;6.45;2.40;;;;;;;;;;4966999;28;20053;-61
2022/11/04 06:23:34;;;;;;;6.40;2.55;;;;;;;;;;4958305;28;20063;-61
2022/11/04 06:26:00;;;;;;;4.57;2.40;;;;;;;;;;4953424;28;20046;-62
2022/11/04 06:28:27;;;;;;;6.30;2.65;;;;;;;;;;4948858;28;20047;-63
2022/11/04 06:30:54;;;;;;;4.15;2.10;;;;;;;;;;4966021;28;20058;-61
2022/11/04 06:33:20;;;;;;;5.63;2.22;;;;;;;;;;4957181;28;20050;-61
2022/11/04 06:35:47;;;;;;;4.93;2.40;;;;;;;;;;4947318;28;20046;-61
2022/11/04 06:38:15;;;;;;;4.65;2.17;;;;;;;;;;4972901;28;20105;-61
2022/11/04 06:40:42;;;;;;;4.97;2.30;;;;;;;;;;4955467;28;20058;-61
2022/11/04 06:43:08;;;;;;;4.22;2.00;;;;;;;;;;4955654;28;20047;-61
2022/11/04 06:45:35;;;;;;;5.18;2.30;;;;;;;;;;4951836;28;20137;-61
2022/11/04 06:48:02;;;;;;;5.85;1.95;;;;;;;;;;4958388;28;20057;-61
2022/11/04 06:50:29;;;;;;;7.25;2.33;;;;;;;;;;4958260;28;20055;-61
2022/11/04 06:52:56;;;;;;;6.43;2.17;;;;;;;;;;4962071;28;20047;-61
2022/11/04 06:55:24;;;;;;;5.25;2.03;;;;;;;;;;4976303;28;20058;-61
2022/11/04 06:57:51;;;;;;;6.00;2.30;;;;;;;;;;4945916;28;20055;-61
2022/11/04 07:00:19;;;;;;;6.07;2.20;;;;;;;;;;4957979;28;20058;-61
2022/11/04 07:02:45;;;;;;;7.03;2.30;;;;;;;;;;4941811;28;20093;-61
2022/11/04 07:05:13;;;;;;;6.97;1.88;;;;;;;;;;4944768;29;20070;-61
2022/11/04 07:07:40;;;;;;;5.95;2.38;;;;;;;;;;4934819;28;20105;-61
2022/11/04 07:10:06;;;;;;;3.67;1.90;;;;;;;;;;4959170;28;20058;-61
2022/11/04 07:12:34;;;;;;;5.10;2.30;;;;;;;;;;4953438;28;20047;-61
2022/11/04 07:15:01;;;;;;;5.13;1.70;;;;;;;;;;4959923;28;20062;-61
2022/11/04 07:17:28;;;;;;;6.80;1.85;;;;;;;;;;4945195;28;20298;-62
2022/11/04 07:19:55;;;;;;;5.00;2.15;;;;;;;;;;4963720;28;20124;-62
2022/11/04 07:22:22;;;;;;;3.75;1.70;;;;;;;;;;4952922;28;20743;-61
2022/11/04 07:24:48;;;;;;;6.15;2.03;;;;;;;;;;4980028;28;20051;-61
2022/11/04 07:27:15;;;;;;;4.55;2.08;;;;;;;;;;4955368;28;20062;-61
2022/11/04 07:29:43;;;;;;;6.47;2.10;;;;;;;;;;4931993;28;20055;-61
2022/11/04 07:32:10;;;;;;;3.60;1.75;;;;;;;;;;4941014;29;20059;-61
2022/11/04 07:34:37;;;;;;;3.58;1.70;;;;;;;;;;4948279;28;20051;-62
2022/11/04 07:37:03;;;;;;;6.93;1.88;;;;;;;;;;4939781;28;20115;-62
2022/11/04 07:39:30;;;;;;;5.47;1.80;;;;;;;;;;4932557;28;20085;-61
2022/11/04 07:41:56;;;;;;;4.35;2.00;;;;;;;;;;4940733;29;20087;-62
2022/11/04 07:44:24;;;;;;;4.25;1.70;;;;;;;;;;4950814;28;20078;-62
2022/11/04 07:46:52;;;;;;;4.32;1.80;;;;;;;;;;4975805;28;20047;-61
2022/11/04 07:49:19;;;;;;;3.47;1.70;;;;;;;;;;4959557;28;20047;-62
2022/11/04 07:51:47;;;;;;;4.05;1.63;;;;;;;;;;4938669;28;20079;-62
2022/11/04 07:54:14;;;;;;;3.15;1.52;;;;;;;;;;4939345;28;20078;-62
2022/11/04 07:56:40;;;;;;;3.95;1.48;;;;;;;;;;4944468;29;20106;-62
2022/11/04 07:59:07;;;;;;;3.65;1.85;;;;;;;;;;4944733;28;20054;-62
2022/11/04 08:01:33;;;;;;;3.72;1.60;;;;;;;;;;4977110;28;20050;-61
2022/11/04 08:04:01;;;;;;;5.28;1.65;;;;;;;;;;4968568;28;20087;-61
2022/11/04 08:06:28;;;;;;;3.78;1.63;;;;;;;;;;4967229;28;20061;-61
2022/11/04 08:08:54;;;;;;;3.83;1.60;;;;;;;;;;4961421;28;20074;-62
2022/11/04 08:11:23;;;;;;;5.10;1.90;;;;;;;;;;4997502;28;20575;-62
2022/11/04 08:13:51;;;;;;;3.67;1.50;;;;;;;;;;4967124;28;20054;-62
2022/11/04 08:16:18;;;;;;;3.10;1.52;;;;;;;;;;4945855;28;20078;-61
2022/11/04 08:18:45;;;;;;;5.30;1.83;;;;;;;;;;4966835;28;20122;-62
2022/11/04 08:21:13;;;;;;;5.80;2.05;;;;;;;;;;4942879;28;20110;-61
2022/11/04 08:23:40;;;;;;;5.03;1.83;;;;;;;;;;4953442;28;20135;-61
2022/11/04 08:26:07;;;;;;;8.95;1.85;;;;;;;;;;4954758;28;20051;-62
2022/11/04 08:28:34;;;;;;;8.70;2.05;;;;;;;;;;4947534;28;20070;-62
2022/11/04 08:31:02;;;;;;;5.40;1.92;;;;;;;;;;4946209;28;20046;-62
2022/11/04 08:33:29;;;;;;;3.17;1.47;;;;;;;;;;4960437;28;20058;-62
2022/11/04 08:35:59;;;;;;;6.28;2.00;;;;;;;;;;4964687;28;20050;-62
2022/11/04 08:38:27;;;;;;;6.07;1.70;;;;;;;;;;4981403;28;20042;-63
2022/11/04 08:40:56;;;;;;;6.15;1.60;;;;;;;;;;4975362;28;20120;-62
2022/11/04 08:43:23;;;;;;;5.93;1.70;;;;;;;;;;4969249;28;20140;-61
2022/11/04 08:45:50;;;;;;;7.53;1.80;;;;;;;;;;4935382;28;20047;-61
2022/11/04 08:48:16;;;;;;;3.85;1.48;;;;;;;;;;4950006;28;20074;-62
2022/11/04 08:50:43;;;;;;;6.53;1.60;;;;;;;;;;4953902;28;20058;-62
2022/11/04 08:53:10;;;;;;;6.75;1.80;;;;;;;;;;4943876;28;20066;-61
2022/11/04 08:55:38;;;;;;;5.97;1.85;;;;;;;;;;4954541;28;20074;-62
2022/11/04 08:58:04;;;;;;;3.77;1.50;;;;;;;;;;4976322;28;20090;-62
2022/11/04 09:00:32;;;;;;;4.60;1.63;;;;;;;;;;4985822;28;20310;-61
2022/11/04 09:03:00;;;;;;;5.57;1.50;;;;;;;;;;4958698;28;20051;-61
2022/11/04 09:05:27;;;;;;;3.05;1.40;;;;;;;;;;4943310;28;20055;-61
2022/11/04 09:07:57;;;;;;;9.70;1.90;;;;;;;;;;4959252;28;20989;-62
2022/11/04 09:10:24;;;;;;;7.97;2.00;;;;;;;;;;4968986;28;20102;-62
2022/11/04 09:12:53;;;;;;;13.75;1.75;;;;;;;;;;4948610;28;20047;-61
2022/11/04 09:15:19;;;;;;;4.60;1.40;;;;;;;;;;4978825;28;20113;-61
2022/11/04 09:17:47;;;;;;;11.48;2.58;;;;;;;;;;4955687;28;20136;-62
2022/11/04 09:20:13;;;;;;;6.22;1.60;;;;;;;;;;4981674;28;20104;-61
2022/11/04 09:22:41;;;;;;;4.30;1.50;;;;;;;;;;4972919;28;20042;-62
2022/11/04 09:25:08;;;;;;;5.43;2.08;;;;;;;;;;4980931;28;20043;-62
2022/11/04 09:27:35;;;;;;;7.50;2.00;;;;;;;;;;4984326;28;20133;-62
2022/11/04 09:30:05;;;;;;;5.57;1.55;;;;;;;;;;4980592;28;20049;-62
2022/11/04 09:32:33;;;;;;;4.72;1.60;;;;;;;;;;4971666;28;20074;-62
2022/11/04 09:34:59;;;;;;;4.57;1.70;;;;;;;;;;4961619;28;20070;-62
2022/11/04 09:37:27;;;;;;;3.53;1.30;;;;;;;;;;4971544;28;20070;-62
2022/11/04 09:39:54;;;;;;;4.50;2.05;;;;;;;;;;4997164;28;20062;-61
2022/11/04 09:42:38;;;;;;;9.60;2.60;;;;;;;;;;4979055;28;20161;-61
2022/11/04 09:45:09;;;;;;;15.63;2.50;;;;;;;;;;4942778;28;20061;-61
2022/11/04 09:47:37;;;;;;;7.63;2.45;;;;;;;;;;4935869;28;20063;-62
2022/11/04 09:50:07;;;;;;;8.25;2.42;;;;;;;;;;4989226;28;20082;-61
2022/11/04 09:52:37;;;;;;;8.25;2.40;;;;;;;;;;4984888;28;20157;-62
2022/11/04 09:55:10;;;;;;;4.75;1.88;;;;;;;;;;4950646;28;20051;-61
2022/11/04 09:57:37;;;;;;;8.00;2.20;;;;;;;;;;4918269;28;20059;-62
2022/11/04 10:00:03;;;;;;;4.57;1.65;;;;;;;;;;4943615;28;20158;-62
2022/11/04 10:02:46;;;;;;;4.35;1.58;;;;;;;;;;4942877;28;20156;-62
2022/11/04 10:05:18;;;;;;;8.05;2.47;;;;;;;;;;4951397;28;20055;-61
2022/11/04 10:07:53;;;;;;;5.10;2.10;;;;;;;;;;4938472;28;20051;-61
2022/11/04 10:10:22;;;;;;;4.38;1.60;;;;;;;;;;4936144;28;20059;-62
2022/11/04 10:13:07;;;;;;;10.30;3.35;;;;;;;;;;4925341;29;20051;-61
2022/11/04 10:15:44;;;;;;;9.93;3.25;;;;;;;;;;4928693;28;20117;-61
2022/11/04 10:18:20;;;;;;;9.07;3.30;;;;;;;;;;4942682;28;20148;-61
2022/11/04 10:20:53;;;;;;;4.03;2.08;;;;;;;;;;4948351;28;20060;-62
2022/11/04 10:23:21;;;;;;;5.75;2.28;;;;;;;;;;4955791;28;20579;-62
2022/11/04 10:25:49;;;;;;;3.88;1.77;;;;;;;;;;4935189;28;20062;-61
2022/11/04 10:28:17;;;;;;;10.60;3.03;;;;;;;;;;4943323;28;20059;-61
2022/11/04 10:30:45;;;;;;;9.85;4.45;;;;;;;;;;4949248;28;20062;-61
2022/11/04 10:33:17;;;;;;;5.57;2.70;;;;;;;;;;4967911;28;20053;-61
2022/11/04 10:35:46;;;;;;;8.95;3.72;;;;;;;;;;4947363;28;20062;-61
2022/11/04 10:38:18;;;;;;;4.65;2.10;;;;;;;;;;4940255;28;20110;-62
2022/11/04 10:40:46;;;;;;;6.00;1.70;;;;;;;;;;4951829;28;20142;-62
2022/11/04 10:43:14;;;;;;;4.30;1.88;;;;;;;;;;4940520;28;20081;-61
2022/11/04 10:45:43;;;;;;;5.70;2.72;;;;;;;;;;4916023;28;20054;-62
2022/11/04 10:48:14;;;;;;;6.53;2.78;;;;;;;;;;4941755;29;20086;-61
2022/11/04 10:50:47;;;;;;;8.35;3.63;;;;;;;;;;4925259;28;20058;-61
2022/11/04 10:53:15;;;;;;;14.40;5.55;;;;;;;;;;4979249;28;20120;-61
2022/11/04 10:55:47;;;;;;;8.93;4.38;;;;;;;;;;4964077;28;20126;-61
2022/11/04 10:58:17;;;;;;;10.93;4.53;;;;;;;;;;4967745;28;20065;-62
2022/11/04 11:00:43;;;;;;;7.97;3.53;;;;;;;;;;4943343;28;20125;-64
2022/11/04 11:03:28;;;;;;;10.63;3.47;;;;;;;;;;4936971;28;20062;-63
2022/11/04 11:06:10;;;;;;;8.25;2.70;;;;;;;;;;4932047;28;20055;-64
2022/11/04 11:08:37;;;;;;;5.45;2.30;;;;;;;;;;4943622;28;20062;-64
2022/11/04 11:11:04;;;;;;;6.10;2.03;;;;;;;;;;4953308;28;20142;-64
2022/11/04 11:13:35;;;;;;;3.63;1.60;;;;;;;;;;4953883;28;20051;-61
2022/11/04 11:16:06;;;;;;;9.65;3.45;;;;;;;;;;4940458;28;20055;-61
2022/11/04 11:18:35;;;;;;;6.25;2.55;;;;;;;;;;4971600;28;20050;-61
2022/11/04 11:21:08;;;;;;;11.52;4.82;;;;;;;;;;4980294;28;20054;-61
2022/11/04 11:23:38;;;;;;;14.98;5.13;;;;;;;;;;4945623;28;20161;-61
2022/11/04 11:26:07;;;;;;;6.32;2.83;;;;;;;;;;4979212;28;20112;-61
2022/11/04 11:28:37;;;;;;;6.88;2.63;;;;;;;;;;4956335;28;20109;-61
2022/11/04 11:31:07;;;;;;;7.40;3.38;;;;;;;;;;4960642;28;20062;-62
2022/11/04 11:33:35;;;;;;;5.63;2.72;;;;;;;;;;4952029;28;20141;-62
2022/11/04 11:36:05;;;;;;;9.68;4.43;;;;;;;;;;4959315;28;20079;-62
2022/11/04 11:38:34;;;;;;;11.77;5.50;;;;;;;;;;4942840;28;20118;-61
2022/11/04 11:41:00;;;;;;;;;;;;;;;;;;4956660;28;20146;-62
2022/11/04 11:43:29;;;;;;;4.97;2.22;;;;;;;;;;4938550;28;19926;-62
2022/11/04 11:45:56;;;;;;;7.32;3.40;;;;;;;;;;4940556;29;20144;-64
2022/11/04 11:48:30;;;;;;;8.18;3.08;;;;;;;;;;4941719;28;20058;-63
2022/11/04 11:50:57;;;;;;;15.23;5.00;;;;;;;;;;4960977;28;20078;-63
2022/11/04 11:53:28;;;;;;;15.80;5.40;;;;;;;;;;4977312;28;20046;-63
2022/11/04 11:56:00;;;;;;;13.15;5.60;;;;;;;;;;4975986;28;20113;-63
2022/11/04 11:58:30;;;;;;;11.32;4.25;;;;;;;;;;4979489;28;20055;-63
2022/11/04 12:00:59;;;;;;;14.15;5.80;;;;;;;;;;4940076;28;20074;-63
2022/11/04 12:03:29;;;;;;;;;;;;;;;;;;4934479;28;20051;-63
2022/11/04 12:06:00;;;;;;;11.38;4.07;;;;;;;;;;4936977;28;20041;-63
2022/11/04 12:08:39;;;;;;;11.98;5.85;;;;;;;;;;4956155;28;20127;-63
2022/11/04 12:11:11;;;;;;;15.13;6.18;;;;;;;;;;4965134;28;20069;-64
2022/11/04 12:13:40;;;;;;;10.93;4.22;;;;;;;;;;4947169;28;20055;-64
2022/11/04 12:16:08;;;;;;;;;;;;;;;;;;4969411;28;20067;-63
2022/11/04 12:18:52;;;;;;;22.20;7.47;;;;;;;;;;4942191;28;19952;-63
2022/11/04 12:21:22;;;;;;;18.33;6.95;;;;;;;;;;4940368;28;20115;-63
2022/11/04 12:23:52;;;;;;;7.88;4.13;;;;;;;;;;4937477;28;20169;-62
2022/11/04 12:26:25;;;;;;;9.15;4.43;;;;;;;;;;4939512;28;20043;-61
2022/11/04 12:28:56;;;;;;;11.88;4.85;;;;;;;;;;4938520;28;20051;-61
2022/11/04 12:31:29;;;;;;;13.10;6.32;;;;;;;;;;4959063;28;20088;-61
2022/11/04 12:34:01;;;;;;;13.02;6.20;;;;;;;;;;4970628;28;21224;-61
2022/11/04 12:36:40;;;;;;;14.68;6.50;;;;;;;;;;4936473;28;20047;-61
2022/11/04 12:39:14;;;;;;;10.02;4.40;;;;;;;;;;4938459;29;20055;-61
2022/11/04 12:41:47;;;;;;;9.05;4.43;;;;;;;;;;4932844;28;20106;-61
2022/11/04 12:44:18;;;;;;;8.52;3.95;;;;;;;;;;4970452;28;20057;-62
2022/11/04 12:46:51;;;;;;;12.45;5.57;;;;;;;;;;4951836;28;20062;-61
2022/11/04 12:49:38;;;;;;;11.98;5.18;;;;;;;;;;4938094;28;20052;-62
2022/11/04 12:52:08;;;;;;;9.80;4.60;;;;;;;;;;4953588;28;20118;-61
2022/11/04 12:54:44;;;;;;;10.05;5.10;;;;;;;;;;4961588;28;20062;-61
2022/11/04 12:57:18;;;;;;;8.50;4.13;;;;;;;;;;4956741;28;20055;-61
2022/11/04 12:59:51;;;;;;;14.43;6.22;;;;;;;;;;4943205;28;20059;-61
2022/11/04 13:02:22;;;;;;;9.60;3.72;;;;;;;;;;4958032;28;20053;-62
2022/11/04 13:04:53;;;;;;;14.95;6.40;;;;;;;;;;4979948;28;20050;-61
2022/11/04 13:07:25;;;;;;;15.18;6.05;;;;;;;;;;4971366;28;20050;-61
2022/11/04 13:09:53;;;;;;;13.88;6.20;;;;;;;;;;4971086;28;20058;-61
2022/11/04 13:12:22;;;;;;;9.15;4.60;;;;;;;;;;4965264;28;20064;-62
2022/11/04 13:14:51;;;;;;;11.80;5.70;;;;;;;;;;4970004;28;20124;-61
2022/11/04 13:17:20;;;;;;;10.63;5.57;;;;;;;;;;4965806;28;20069;-61
2022/11/04 13:19:46;;;;;;;;;;;;;;;;;;4962921;28;20120;-61
2022/11/04 13:22:17;;;;;;;9.82;4.25;;;;;;;;;;4964087;28;19932;-61
2022/11/04 13:24:47;;;;;;;10.23;5.28;;;;;;;;;;4997669;28;20054;-61
2022/11/04 13:27:16;;;;;;;11.73;5.72;;;;;;;;;;4970621;28;20087;-62
2022/11/04 13:29:47;;;;;;;8.40;3.88;;;;;;;;;;4943749;28;20078;-61
2022/11/04 13:32:16;;;;;;;9.25;5.00;;;;;;;;;;4951321;28;20086;-62
2022/11/04 13:34:42;;;;;;;;;;;;;;;;;;4972173;28;20054;-62
2022/11/04 13:37:13;;;;;;;11.90;5.28;;;;;;;;;;4962927;28;19972;-61
2022/11/04 13:39:42;;;;;;;7.90;4.40;;;;;;;;;;4978379;28;20085;-61
2022/11/04 13:42:21;;;;;;;10.70;4.80;;;;;;;;;;4979386;28;20062;-61
2022/11/04 13:44:51;;;;;;;9.68;4.63;;;;;;;;;;4944920;28;20062;-62
2022/11/04 13:47:20;;;;;;;13.07;5.28;;;;;;;;;;4938812;28;20086;-62
2022/11/04 13:49:49;;;;;;;10.60;5.00;;;;;;;;;;4958604;28;20107;-61
2022/11/04 13:52:16;;;;;;;12.40;5.78;;;;;;;;;;4956600;28;20063;-61
2022/11/04 13:54:44;;;;;;;15.32;5.00;;;;;;;;;;4949594;28;20059;-61
2022/11/04 13:57:14;;;;;;;10.93;5.93;;;;;;;;;;4965179;28;20061;-61
2022/11/04 13:59:43;;;;;;;14.35;5.72;;;;;;;;;;4945347;28;20051;-62
2022/11/04 14:02:25;;;;;;;11.00;5.32;;;;;;;;;;4956637;28;20271;-62
2022/11/04 14:05:34;;;;;;;7.40;3.88;;;;;;;;;;4982936;27;20444;-63
2022/11/04 14:08:13;;;;;;;14.73;5.10;;;;;;;;;;4981149;28;20125;-63
2022/11/04 14:10:45;;;;;;;17.42;5.60;;;;;;;;;;4976640;28;20055;-63
2022/11/04 14:13:32;;;;;;;12.27;5.35;;;;;;;;;;4970815;28;20055;-63
2022/11/04 14:16:00;;;;;;;11.35;5.43;;;;;;;;;;4976559;28;20078;-63
2022/11/04 14:18:28;;;;;;;13.82;5.72;;;;;;;;;;4974056;28;20051;-62
2022/11/04 14:21:02;;;;;;;11.52;5.95;;;;;;;;;;4980666;28;20069;-63
2022/11/04 14:23:30;;;;;;;13.20;5.65;;;;;;;;;;4974449;28;20058;-62
2022/11/04 14:26:01;;;;;;;14.02;5.10;;;;;;;;;;5000753;28;20144;-63
2022/11/04 14:28:29;;;;;;;13.55;5.53;;;;;;;;;;4974788;28;20065;-62
2022/11/04 14:30:57;;;;;;;12.27;4.75;;;;;;;;;;4974388;28;20124;-63
2022/11/04 14:33:30;;;;;;;6.97;3.07;;;;;;;;;;4975846;28;20050;-63
2022/11/04 14:36:13;;;;;;;6.63;2.80;;;;;;;;;;4972287;28;20050;-63
2022/11/04 14:38:41;;;;;;;5.63;2.55;;;;;;;;;;4980142;28;20054;-63
2022/11/04 14:41:08;;;;;;;;;;;;;;;;;;4970727;28;20050;-62
2022/11/04 14:43:35;;;;;;;7.55;2.67;;;;;;;;;;4968361;28;19937;-63
2022/11/04 14:46:02;;;;;;;8.23;2.40;;;;;;;;;;5000421;28;20062;-63
2022/11/04 14:48:29;;;;;;;3.20;1.27;;;;;;;;;;4975443;28;20059;-63
2022/11/04 14:50:56;;;;;;;5.95;2.42;;;;;;;;;;5002552;28;20050;-63
2022/11/04 14:53:26;;;;;;;6.50;2.35;;;;;;;;;;4980274;28;20054;-63
2022/11/04 14:56:04;;;;;;;3.88;1.80;;;;;;;;;;4964625;28;20050;-62
2022/11/04 14:58:31;;;;;;;4.63;2.45;;;;;;;;;;4973150;28;20156;-63
2022/11/04 15:00:59;;;;;;;5.68;2.55;;;;;;;;;;4969876;28;20117;-63
2022/11/04 15:03:29;;;;;;;5.53;2.53;;;;;;;;;;4973394;28;20113;-62
2022/11/04 15:05:59;;;;;;;5.53;2.45;;;;;;;;;;4969075;28;20190;-62
2022/11/04 15:08:30;;;;;;;5.40;2.13;;;;;;;;;;4972809;28;20070;-63
2022/11/04 15:11:01;;;;;;;5.25;2.35;;;;;;;;;;5001708;28;20063;-62
2022/11/04 15:13:32;;;;;;;4.53;2.20;;;;;;;;;;4978530;28;20074;-64
2022/11/04 15:16:08;;;;;;;4.68;2.30;;;;;;;;;;4958589;28;20062;-63
2022/11/04 15:18:38;;;;;;;5.18;2.00;;;;;;;;;;4961355;28;20092;-62
2022/11/04 15:21:05;;;;;;;7.05;2.20;;;;;;;;;;4956430;28;20061;-63
2022/11/04 15:23:34;;;;;;;4.75;2.00;;;;;;;;;;4958786;28;20059;-63